createdAt,value
2023-05-16T00:00:27.972Z,1005.86
2023-05-16T00:01:27.862Z,1005.90
2023-05-16T00:02:28.975Z,1005.81
2023-05-16T00:03:28.332Z,1005.88
2023-05-16T00:04:28.471Z,1005.93
2023-05-16T00:05:28.647Z,1005.98
2023-05-16T00:06:30.723Z,1006.03
2023-05-16T00:07:28.982Z,1006.03
2023-05-16T00:08:29.825Z,1006.08
2023-05-16T00:09:29.386Z,1006.15
2023-05-16T00:10:30.332Z,1006.29
2023-05-16T00:11:29.732Z,1006.27
2023-05-16T00:12:30.877Z,1006.34
2023-05-16T00:13:30.386Z,1006.40
2023-05-16T00:14:31.832Z,1006.41
2023-05-16T00:15:30.869Z,1006.42
2023-05-16T00:16:30.653Z,1006.52
2023-05-16T00:17:31.416Z,1006.48
2023-05-16T00:18:30.949Z,1006.53
2023-05-16T00:19:31.873Z,1006.64
2023-05-16T00:20:31.267Z,1006.66
2023-05-16T00:21:32.452Z,1006.70
2023-05-16T00:22:31.619Z,1006.74
2023-05-16T00:23:31.795Z,1006.77
2023-05-16T00:24:32.875Z,1006.83
2023-05-16T00:25:32.151Z,1006.91
2023-05-16T00:26:32.308Z,1006.97
2023-05-16T00:27:33.331Z,1007.00
2023-05-16T00:28:32.721Z,1007.10
2023-05-16T00:29:32.883Z,1007.08
2023-05-16T00:30:33.390Z,1007.10
2023-05-16T00:31:33.310Z,1007.14
2023-05-16T00:32:34.855Z,1007.21
2023-05-16T00:33:34.370Z,1007.23
2023-05-16T00:34:34.391Z,1007.26
2023-05-16T00:35:33.948Z,1007.28
2023-05-16T00:36:34.126Z,1007.41
2023-05-16T00:37:34.331Z,1007.41
2023-05-16T00:38:35.387Z,1007.39
2023-05-16T00:39:34.659Z,1007.44
2023-05-16T00:40:34.869Z,1007.39
2023-05-16T00:41:35.876Z,1007.40
2023-05-16T00:42:35.304Z,1007.45
2023-05-16T00:43:35.888Z,1007.41
2023-05-16T00:44:36.376Z,1007.42
2023-05-16T00:45:36.880Z,1007.50
2023-05-16T00:46:36.113Z,1007.52
2023-05-16T00:47:36.861Z,1007.46
2023-05-16T00:48:36.449Z,1007.56
2023-05-16T00:49:36.903Z,1007.50
2023-05-16T00:50:37.358Z,1007.51
2023-05-16T00:51:37.020Z,1007.58
2023-05-16T00:52:37.231Z,1007.57
2023-05-16T00:53:38.341Z,1007.59
2023-05-16T00:54:37.668Z,1007.52
2023-05-16T00:55:38.377Z,1007.60
2023-05-16T00:56:38.068Z,1007.63
2023-05-16T00:57:38.886Z,1007.65
2023-05-16T00:58:39.420Z,1007.69
2023-05-16T00:59:39.343Z,1007.67
2023-05-16T01:00:38.791Z,1007.72
2023-05-16T01:01:39.893Z,1007.67
2023-05-16T01:02:39.325Z,1007.66
2023-05-16T01:03:39.941Z,1007.72
2023-05-16T01:04:41.354Z,1007.74
2023-05-16T01:05:39.747Z,1007.76
2023-05-16T01:06:41.700Z,1007.79
2023-05-16T01:07:40.088Z,1007.78
2023-05-16T01:08:40.287Z,1007.86
2023-05-16T01:09:40.468Z,1007.70
2023-05-16T01:10:40.632Z,1007.75
2023-05-16T01:11:41.381Z,1007.71
2023-05-16T01:12:40.920Z,1007.77
2023-05-16T01:13:41.080Z,1007.81
2023-05-16T01:14:41.879Z,1007.86
2023-05-16T01:15:41.436Z,1007.86
2023-05-16T01:16:41.659Z,1007.86
2023-05-16T01:17:41.989Z,1007.84
2023-05-16T01:18:41.988Z,1007.90
2023-05-16T01:19:42.102Z,1007.84
2023-05-16T01:20:42.304Z,1007.87
2023-05-16T01:21:42.501Z,1007.83
2023-05-16T01:22:43.342Z,1007.91
2023-05-16T01:23:42.868Z,1007.89
2023-05-16T01:24:43.771Z,1007.84
2023-05-16T01:25:44.880Z,1007.83
2023-05-16T01:26:44.385Z,1007.82
2023-05-16T01:27:43.574Z,1007.82
2023-05-16T01:28:43.774Z,1007.79
2023-05-16T01:29:44.839Z,1007.91
2023-05-16T01:30:44.844Z,1007.83
2023-05-16T01:31:44.332Z,1007.85
2023-05-16T01:32:44.501Z,1007.86
2023-05-16T01:33:44.626Z,1007.84
2023-05-16T01:34:44.814Z,1007.84
2023-05-16T01:35:44.998Z,1007.84
2023-05-16T01:36:45.885Z,1007.80
2023-05-16T01:37:45.290Z,1007.78
2023-05-16T01:38:45.469Z,1007.86
2023-05-16T01:39:45.708Z,1007.84
2023-05-16T01:40:46.908Z,1007.85
2023-05-16T01:41:46.071Z,1007.86
2023-05-16T01:42:46.289Z,1007.84
2023-05-16T01:43:46.467Z,1007.88
2023-05-16T01:44:46.900Z,1007.86
2023-05-16T01:45:48.340Z,1007.92
2023-05-16T01:46:47.022Z,1007.90
2023-05-16T01:47:48.913Z,1007.91
2023-05-16T01:48:47.403Z,1007.89
2023-05-16T01:49:47.586Z,1007.88
2023-05-16T01:50:48.778Z,1007.90
2023-05-16T01:51:47.911Z,1007.92
2023-05-16T01:52:48.099Z,1007.90
2023-05-16T01:53:48.261Z,1007.92
2023-05-16T01:54:48.452Z,1007.91
2023-05-16T01:55:49.363Z,1007.92
2023-05-16T01:56:52.315Z,1007.97
2023-05-16T01:57:48.928Z,1007.95
2023-05-16T01:58:49.840Z,1008.05
2023-05-16T01:59:49.913Z,1008.13
2023-05-16T02:00:50.478Z,1008.10
2023-05-16T02:01:49.790Z,1007.99
2023-05-16T02:02:50.007Z,1007.99
2023-05-16T02:03:50.121Z,1008.09
2023-05-16T02:04:50.896Z,1008.03
2023-05-16T02:05:52.355Z,1008.07
2023-05-16T02:06:50.897Z,1008.06
2023-05-16T02:07:50.759Z,1008.15
2023-05-16T02:08:50.938Z,1008.07
2023-05-16T02:09:51.101Z,1008.13
2023-05-16T02:10:51.849Z,1008.16
2023-05-16T02:11:51.491Z,1008.20
2023-05-16T02:12:51.624Z,1008.14
2023-05-16T02:13:52.296Z,1008.13
2023-05-16T02:14:52.939Z,1008.13
2023-05-16T02:15:52.180Z,1008.14
2023-05-16T02:16:52.941Z,1008.12
2023-05-16T02:17:52.991Z,1008.07
2023-05-16T02:18:53.248Z,1008.15
2023-05-16T02:19:52.752Z,1008.11
2023-05-16T02:20:54.357Z,1008.13
2023-05-16T02:21:53.912Z,1008.10
2023-05-16T02:22:53.327Z,1008.13
2023-05-16T02:23:53.499Z,1008.17
2023-05-16T02:24:53.692Z,1008.13
2023-05-16T02:25:54.417Z,1008.14
2023-05-16T02:26:54.856Z,1008.10
2023-05-16T02:27:55.371Z,1008.16
2023-05-16T02:28:54.401Z,1008.20
2023-05-16T02:29:55.403Z,1008.17
2023-05-16T02:30:54.784Z,1008.24
2023-05-16T02:31:55.905Z,1008.22
2023-05-16T02:32:55.474Z,1008.26
2023-05-16T02:33:55.895Z,1008.23
2023-05-16T02:34:55.923Z,1008.30
2023-05-16T02:35:56.374Z,1008.30
2023-05-16T02:36:55.787Z,1008.37
2023-05-16T02:37:55.935Z,1008.45
2023-05-16T02:38:56.157Z,1008.46
2023-05-16T02:39:56.309Z,1008.36
2023-05-16T02:40:58.380Z,1008.52
2023-05-16T02:41:56.642Z,1008.56
2023-05-16T02:42:56.791Z,1008.60
2023-05-16T02:43:56.952Z,1008.56
2023-05-16T02:44:58.866Z,1008.55
2023-05-16T02:45:57.929Z,1008.66
2023-05-16T02:46:58.376Z,1008.66
2023-05-16T02:47:57.737Z,1008.74
2023-05-16T02:48:57.831Z,1008.67
2023-05-16T02:49:58.048Z,1008.72
2023-05-16T02:50:58.218Z,1008.75
2023-05-16T02:51:58.387Z,1008.78
2023-05-16T02:52:58.550Z,1008.82
2023-05-16T02:53:58.740Z,1008.90
2023-05-16T02:55:09.780Z,1008.90
2023-05-16T02:56:01.071Z,1008.88
2023-05-16T02:57:00.368Z,1008.94
2023-05-16T02:58:00.360Z,1008.96
2023-05-16T02:58:59.478Z,1009.03
2023-05-16T02:59:59.662Z,1008.99
2023-05-16T03:00:59.847Z,1008.99
2023-05-16T03:02:00.945Z,1009.02
2023-05-16T03:03:00.976Z,1008.98
2023-05-16T03:04:02.049Z,1009.05
2023-05-16T03:05:02.367Z,1009.07
2023-05-16T03:06:00.616Z,1009.15
2023-05-16T03:07:00.787Z,1009.02
2023-05-16T03:08:01.857Z,1009.12
2023-05-16T03:09:01.136Z,1009.17
2023-05-16T03:10:01.261Z,1009.15
2023-05-16T03:11:02.434Z,1009.21
2023-05-16T03:12:01.625Z,1009.25
2023-05-16T03:13:01.807Z,1009.21
2023-05-16T03:14:02.142Z,1009.26
2023-05-16T03:15:02.261Z,1009.25
2023-05-16T03:16:02.944Z,1009.29
2023-05-16T03:17:02.540Z,1009.24
2023-05-16T03:18:02.741Z,1009.31
2023-05-16T03:19:02.992Z,1009.28
2023-05-16T03:20:04.365Z,1009.33
2023-05-16T03:21:03.368Z,1009.34
2023-05-16T03:22:04.417Z,1009.37
2023-05-16T03:23:03.705Z,1009.42
2023-05-16T03:24:03.923Z,1009.43
2023-05-16T03:25:04.131Z,1009.36
2023-05-16T03:26:04.916Z,1009.33
2023-05-16T03:27:04.478Z,1009.40
2023-05-16T03:28:04.633Z,1009.42
2023-05-16T03:29:04.841Z,1009.38
2023-05-16T03:30:05.037Z,1009.49
2023-05-16T03:31:05.324Z,1009.50
2023-05-16T03:32:05.456Z,1009.46
2023-05-16T03:33:06.738Z,1009.46
2023-05-16T03:34:05.867Z,1009.45
2023-05-16T03:35:06.033Z,1009.49
2023-05-16T03:36:06.876Z,1009.53
2023-05-16T03:37:06.359Z,1009.58
2023-05-16T03:38:06.547Z,1009.46
2023-05-16T03:39:07.876Z,1009.52
2023-05-16T03:40:06.905Z,1009.52
2023-05-16T03:41:07.086Z,1009.57
2023-05-16T03:42:07.259Z,1009.57
2023-05-16T03:43:07.465Z,1009.57
2023-05-16T03:44:29.429Z,1009.64
2023-05-16T03:45:08.415Z,1009.60
2023-05-16T03:46:08.547Z,1009.66
2023-05-16T03:47:08.892Z,1009.64
2023-05-16T03:48:08.354Z,1009.67
2023-05-16T03:49:08.438Z,1009.71
2023-05-16T03:50:08.627Z,1009.61
2023-05-16T03:51:08.837Z,1009.66
2023-05-16T03:52:09.041Z,1009.66
2023-05-16T03:53:09.275Z,1009.72
2023-05-16T03:54:09.440Z,1009.72
2023-05-16T03:55:09.608Z,1009.71
2023-05-16T03:56:09.777Z,1009.80
2023-05-16T03:57:10.745Z,1009.69
2023-05-16T03:58:10.180Z,1009.79
2023-05-16T03:59:10.353Z,1009.72
2023-05-16T04:00:11.474Z,1009.72
2023-05-16T04:01:10.644Z,1009.86
2023-05-16T04:02:11.429Z,1009.84
2023-05-16T04:03:11.037Z,1009.83
2023-05-16T04:04:11.135Z,1009.91
2023-05-16T04:05:11.378Z,1009.89
2023-05-16T04:06:13.043Z,1009.84
2023-05-16T04:07:12.418Z,1009.83
2023-05-16T04:08:11.848Z,1009.86
2023-05-16T04:09:12.065Z,1009.89
2023-05-16T04:10:12.430Z,1009.85
2023-05-16T04:11:12.530Z,1009.84
2023-05-16T04:12:12.733Z,1009.86
2023-05-16T04:13:13.444Z,1009.90
2023-05-16T04:14:13.097Z,1009.88
2023-05-16T04:15:13.294Z,1009.93
2023-05-16T04:16:15.328Z,1010.01
2023-05-16T04:17:13.715Z,1010.05
2023-05-16T04:18:13.902Z,1010.04
2023-05-16T04:19:14.059Z,1009.98
2023-05-16T04:20:14.117Z,1010.09
2023-05-16T04:21:14.889Z,1010.05
2023-05-16T04:22:14.579Z,1010.01
2023-05-16T04:23:14.790Z,1010.09
2023-05-16T04:24:14.959Z,1010.06
2023-05-16T04:25:15.922Z,1010.16
2023-05-16T04:26:15.304Z,1010.14
2023-05-16T04:27:15.480Z,1010.16
2023-05-16T04:28:15.683Z,1010.17
2023-05-16T04:29:15.862Z,1010.16
2023-05-16T04:30:17.891Z,1010.16
2023-05-16T04:31:16.904Z,1010.14
2023-05-16T04:32:16.461Z,1010.16
2023-05-16T04:33:17.431Z,1010.21
2023-05-16T04:34:16.849Z,1010.15
2023-05-16T04:35:17.018Z,1010.28
2023-05-16T04:36:17.214Z,1010.28
2023-05-16T04:37:17.386Z,1010.27
2023-05-16T04:38:17.559Z,1010.31
2023-05-16T04:39:18.448Z,1010.29
2023-05-16T04:40:18.962Z,1010.34
2023-05-16T04:41:18.130Z,1010.36
2023-05-16T04:42:18.934Z,1010.34
2023-05-16T04:43:18.941Z,1010.34
2023-05-16T04:44:19.433Z,1010.35
2023-05-16T04:45:18.916Z,1010.39
2023-05-16T04:46:19.128Z,1010.44
2023-05-16T04:47:19.374Z,1010.43
2023-05-16T04:48:20.902Z,1010.45
2023-05-16T04:49:19.665Z,1010.40
2023-05-16T04:50:20.402Z,1010.47
2023-05-16T04:51:20.080Z,1010.47
2023-05-16T04:52:20.233Z,1010.49
2023-05-16T04:53:20.434Z,1010.47
2023-05-16T04:54:21.401Z,1010.45
2023-05-16T04:55:20.795Z,1010.55
2023-05-16T04:56:20.996Z,1010.49
2023-05-16T04:57:21.164Z,1010.59
2023-05-16T04:58:21.311Z,1010.62
2023-05-16T04:59:21.475Z,1010.56
2023-05-16T05:00:22.479Z,1010.59
2023-05-16T05:01:21.970Z,1010.56
2023-05-16T05:02:22.059Z,1010.58
2023-05-16T05:03:22.936Z,1010.63
2023-05-16T05:04:23.433Z,1010.66
2023-05-16T05:05:23.625Z,1010.73
2023-05-16T05:06:22.930Z,1010.75
2023-05-16T05:07:23.089Z,1010.71
2023-05-16T05:08:23.940Z,1010.75
2023-05-16T05:09:23.957Z,1010.76
2023-05-16T05:10:24.424Z,1010.73
2023-05-16T05:11:23.794Z,1010.75
2023-05-16T05:12:24.467Z,1010.74
2023-05-16T05:13:24.105Z,1010.79
2023-05-16T05:14:24.268Z,1010.83
2023-05-16T05:15:24.684Z,1010.86
2023-05-16T05:16:24.618Z,1010.91
2023-05-16T05:17:25.081Z,1010.99
2023-05-16T05:18:25.920Z,1010.96
2023-05-16T05:19:25.424Z,1011.00
2023-05-16T05:20:25.375Z,1010.94
2023-05-16T05:21:25.594Z,1011.03
2023-05-16T05:22:25.768Z,1011.06
2023-05-16T05:23:26.448Z,1010.98
2023-05-16T05:24:26.095Z,1011.07
2023-05-16T05:25:26.521Z,1011.09
2023-05-16T05:26:26.504Z,1011.08
2023-05-16T05:27:27.439Z,1011.11
2023-05-16T05:28:27.401Z,1011.03
2023-05-16T05:29:27.939Z,1011.08
2023-05-16T05:30:27.181Z,1011.07
2023-05-16T05:31:27.385Z,1011.11
2023-05-16T05:32:29.422Z,1011.09
2023-05-16T05:33:28.767Z,1011.13
2023-05-16T05:34:28.765Z,1011.11
2023-05-16T05:35:30.193Z,1011.19
2023-05-16T05:36:28.943Z,1011.05
2023-05-16T05:37:28.325Z,1011.09
2023-05-16T05:38:28.515Z,1011.10
2023-05-16T05:39:28.709Z,1011.19
2023-05-16T05:40:28.884Z,1011.18
2023-05-16T05:41:29.017Z,1011.12
2023-05-16T05:42:29.157Z,1011.08
2023-05-16T05:43:29.294Z,1011.11
2023-05-16T05:44:29.452Z,1011.15
2023-05-16T05:45:29.928Z,1011.14
2023-05-16T05:46:30.504Z,1011.04
2023-05-16T05:47:30.036Z,1011.03
2023-05-16T05:48:31.901Z,1011.04
2023-05-16T05:49:30.402Z,1010.96
2023-05-16T05:50:31.612Z,1010.97
2023-05-16T05:51:30.772Z,1010.86
2023-05-16T05:52:31.907Z,1010.92
2023-05-16T05:53:31.166Z,1010.85
2023-05-16T05:54:31.328Z,1010.88
2023-05-16T05:55:31.492Z,1010.83
2023-05-16T05:56:31.671Z,1010.87
2023-05-16T05:57:31.852Z,1010.86
2023-05-16T05:58:32.091Z,1010.81
2023-05-16T05:59:32.213Z,1010.88
2023-05-16T06:00:33.926Z,1010.77
2023-05-16T06:01:32.562Z,1010.81
2023-05-16T06:02:33.541Z,1010.68
2023-05-16T06:03:33.489Z,1010.77
2023-05-16T06:04:34.410Z,1010.74
2023-05-16T06:05:34.027Z,1010.58
2023-05-16T06:06:33.458Z,1010.61
2023-05-16T06:07:34.439Z,1010.65
2023-05-16T06:08:34.708Z,1010.69
2023-05-16T06:09:33.844Z,1010.65
2023-05-16T06:10:35.405Z,1010.60
2023-05-16T06:11:35.923Z,1010.62
2023-05-16T06:12:34.423Z,1010.64
2023-05-16T06:13:34.604Z,1010.64
2023-05-16T06:14:34.812Z,1010.57
2023-05-16T06:15:34.980Z,1010.58
2023-05-16T06:16:35.937Z,1010.68
2023-05-16T06:17:35.420Z,1010.70
2023-05-16T06:18:35.544Z,1010.68
2023-05-16T06:19:35.716Z,1010.72
2023-05-16T06:20:35.869Z,1010.69
2023-05-16T06:21:36.955Z,1010.76
2023-05-16T06:22:36.222Z,1010.84
2023-05-16T06:23:36.425Z,1010.77
2023-05-16T06:24:36.583Z,1010.73
2023-05-16T06:25:36.964Z,1010.78
2023-05-16T06:26:36.985Z,1010.73
2023-05-16T06:27:37.966Z,1010.73
2023-05-16T06:28:37.972Z,1010.70
2023-05-16T06:29:37.504Z,1010.74
2023-05-16T06:30:37.978Z,1010.72
2023-05-16T06:31:37.930Z,1010.71
2023-05-16T06:32:40.929Z,1010.73
2023-05-16T06:33:39.221Z,1010.70
2023-05-16T06:34:39.426Z,1010.73
2023-05-16T06:35:39.415Z,1010.66
2023-05-16T06:36:38.805Z,1010.69
2023-05-16T06:37:41.123Z,1010.62
2023-05-16T06:38:39.106Z,1010.59
2023-05-16T06:39:39.292Z,1010.61
2023-05-16T06:40:40.281Z,1010.59
2023-05-16T06:41:41.418Z,1010.59
2023-05-16T06:42:40.910Z,1010.50
2023-05-16T06:43:40.917Z,1010.43
2023-05-16T06:44:40.917Z,1010.50
2023-05-16T06:45:40.451Z,1010.53
2023-05-16T06:46:41.445Z,1010.65
2023-05-16T06:47:40.798Z,1010.63
2023-05-16T06:48:40.929Z,1010.66
2023-05-16T06:49:41.976Z,1010.66
2023-05-16T06:50:41.190Z,1010.68
2023-05-16T06:51:41.344Z,1010.64
2023-05-16T06:52:41.493Z,1010.67
2023-05-16T06:53:41.617Z,1010.66
2023-05-16T06:54:41.741Z,1010.66
2023-05-16T06:55:42.460Z,1010.68
2023-05-16T06:56:42.100Z,1010.71
2023-05-16T06:57:42.237Z,1010.76
2023-05-16T06:58:42.408Z,1010.73
2023-05-16T06:59:42.597Z,1010.69
2023-05-16T07:00:42.725Z,1010.74
2023-05-16T07:01:43.039Z,1010.74
2023-05-16T07:02:43.202Z,1010.71
2023-05-16T07:03:43.393Z,1010.79
2023-05-16T07:04:43.460Z,1010.78
2023-05-16T07:05:43.654Z,1010.76
2023-05-16T07:06:43.770Z,1010.79
2023-05-16T07:07:43.902Z,1010.77
2023-05-16T07:08:44.153Z,1010.78
2023-05-16T07:09:44.960Z,1010.79
2023-05-16T07:10:47.298Z,1010.71
2023-05-16T07:11:46.428Z,1010.76
2023-05-16T07:12:46.421Z,1010.79
2023-05-16T07:13:45.940Z,1010.73
2023-05-16T07:15:18.610Z,1010.56
2023-05-16T07:15:46.977Z,1010.42
2023-05-16T07:16:46.507Z,1010.28
2023-05-16T07:17:46.536Z,1010.07
2023-05-16T07:18:46.080Z,1010.10
2023-05-16T07:19:47.509Z,1009.75
2023-05-16T07:20:46.360Z,1009.97
2023-05-16T07:21:47.019Z,1010.00
2023-05-16T07:22:47.961Z,1010.03
2023-05-16T07:23:46.943Z,1009.86
2023-05-16T07:24:47.123Z,1009.69
2023-05-16T07:25:47.285Z,1009.54
2023-05-16T07:26:47.446Z,1009.66
2023-05-16T07:27:49.959Z,1009.59
2023-05-16T07:28:47.819Z,1009.36
2023-05-16T07:29:48.520Z,1009.41
2023-05-16T07:30:49.021Z,1009.06
2023-05-16T07:31:49.050Z,1009.06
2023-05-16T07:32:49.529Z,1009.02
2023-05-16T07:33:48.690Z,1009.06
2023-05-16T07:34:48.893Z,1008.94
2023-05-16T07:35:51.114Z,1009.02
2023-05-16T07:36:49.231Z,1009.18
2023-05-16T07:37:49.418Z,1009.30
2023-05-16T07:38:49.615Z,1009.37
2023-05-16T07:39:50.458Z,1009.47
2023-05-16T07:40:50.047Z,1009.58
2023-05-16T07:41:51.010Z,1009.63
2023-05-16T07:42:50.425Z,1009.64
2023-05-16T07:43:51.336Z,1009.63
2023-05-16T07:44:50.817Z,1009.77
2023-05-16T07:45:51.072Z,1009.73
2023-05-16T07:46:51.156Z,1009.71
2023-05-16T07:47:51.968Z,1009.68
2023-05-16T07:48:52.462Z,1009.65
2023-05-16T07:49:52.022Z,1009.61
2023-05-16T07:50:53.782Z,1009.69
2023-05-16T07:51:53.364Z,1009.65
2023-05-16T07:52:52.371Z,1009.69
2023-05-16T07:53:53.509Z,1009.83
2023-05-16T07:54:53.511Z,1009.80
2023-05-16T07:55:53.471Z,1009.77
2023-05-16T07:56:53.129Z,1009.88
2023-05-16T07:57:54.324Z,1009.82
2023-05-16T07:58:53.480Z,1009.88
2023-05-16T07:59:53.712Z,1009.85
2023-05-16T08:00:53.945Z,1009.94
2023-05-16T08:01:54.130Z,1010.00
2023-05-16T08:02:54.442Z,1010.06
2023-05-16T08:03:54.662Z,1009.97
2023-05-16T08:04:55.761Z,1009.93
2023-05-16T08:05:55.057Z,1009.88
2023-05-16T08:06:55.067Z,1009.86
2023-05-16T08:07:55.989Z,1009.92
2023-05-16T08:08:56.006Z,1009.90
2023-05-16T08:09:56.454Z,1009.93
2023-05-16T08:10:56.468Z,1009.97
2023-05-16T08:11:55.925Z,1009.93
2023-05-16T08:12:56.148Z,1009.88
2023-05-16T08:13:57.381Z,1009.84
2023-05-16T08:14:57.462Z,1009.73
2023-05-16T08:15:56.767Z,1009.65
2023-05-16T08:16:56.966Z,1009.65
2023-05-16T08:17:58.089Z,1009.60
2023-05-16T08:18:58.012Z,1009.60
2023-05-16T08:19:58.572Z,1009.62
2023-05-16T08:20:58.473Z,1009.47
2023-05-16T08:21:58.512Z,1009.33
2023-05-16T08:22:58.096Z,1009.38
2023-05-16T08:23:58.536Z,1009.34
2023-05-16T08:24:58.469Z,1009.34
2023-05-16T08:25:58.659Z,1009.35
2023-05-16T08:26:58.870Z,1009.33
2023-05-16T08:27:59.069Z,1009.27
2023-05-16T08:29:00.844Z,1009.16
2023-05-16T08:29:59.490Z,1009.19
2023-05-16T08:31:01.005Z,1009.16
2023-05-16T08:32:01.623Z,1009.13
2023-05-16T08:33:01.023Z,1009.13
2023-05-16T08:34:00.324Z,1009.12
2023-05-16T08:35:00.500Z,1009.14
2023-05-16T08:36:01.484Z,1009.11
2023-05-16T08:37:00.894Z,1009.08
2023-05-16T08:38:02.042Z,1009.08
2023-05-16T08:39:01.209Z,1009.01
2023-05-16T08:40:01.456Z,1008.98
2023-05-16T08:41:01.655Z,1008.98
2023-05-16T08:42:02.516Z,1008.94
2023-05-16T08:43:03.844Z,1008.92
2023-05-16T08:44:02.977Z,1009.04
2023-05-16T08:45:02.445Z,1009.01
2023-05-16T08:46:02.694Z,1009.13
2023-05-16T08:47:02.924Z,1009.16
2023-05-16T08:48:03.156Z,1009.11
2023-05-16T08:49:03.218Z,1009.21
2023-05-16T08:50:03.382Z,1009.23
2023-05-16T08:51:03.576Z,1009.28
2023-05-16T08:52:04.036Z,1009.36
2023-05-16T08:53:03.996Z,1009.40
2023-05-16T08:54:04.981Z,1009.41
2023-05-16T08:55:11.066Z,1009.43
2023-05-16T08:56:06.503Z,1009.42
2023-05-16T08:57:05.048Z,1009.25
2023-05-16T08:58:04.876Z,1009.26
2023-05-16T08:59:04.954Z,1009.29
2023-05-16T09:00:07.347Z,1009.33
2023-05-16T09:01:05.368Z,1009.37
2023-05-16T09:02:06.027Z,1009.41
2023-05-16T09:03:06.331Z,1009.35
2023-05-16T09:04:06.565Z,1009.39
2023-05-16T09:05:06.138Z,1009.44
2023-05-16T09:06:08.081Z,1009.47
2023-05-16T09:07:07.486Z,1009.53
2023-05-16T09:08:06.669Z,1009.53
2023-05-16T09:09:06.820Z,1009.55
2023-05-16T09:10:07.223Z,1009.54
2023-05-16T09:11:07.212Z,1009.59
2023-05-16T09:12:07.354Z,1009.53
2023-05-16T09:13:08.356Z,1009.58
2023-05-16T09:14:08.539Z,1009.57
2023-05-16T09:15:08.064Z,1009.58
2023-05-16T09:16:08.983Z,1009.54
2023-05-16T09:17:09.682Z,1009.65
2023-05-16T09:18:08.462Z,1009.69
2023-05-16T09:19:11.414Z,1009.64
2023-05-16T09:20:08.790Z,1009.57
2023-05-16T09:21:08.976Z,1009.53
2023-05-16T09:22:10.092Z,1009.51
2023-05-16T09:23:09.389Z,1009.40
2023-05-16T09:24:10.504Z,1009.26
2023-05-16T09:25:18.388Z,1009.23
2023-05-16T09:26:12.057Z,1009.15
2023-05-16T09:27:10.052Z,1009.15
2023-05-16T09:28:10.240Z,1009.06
2023-05-16T09:29:10.430Z,1009.05
2023-05-16T09:30:10.607Z,1008.93
2023-05-16T09:31:12.601Z,1008.87
2023-05-16T09:32:11.057Z,1008.80
2023-05-16T09:33:11.308Z,1008.81
2023-05-16T09:34:11.391Z,1008.67
2023-05-16T09:35:11.583Z,1008.60
2023-05-16T09:36:12.558Z,1008.67
2023-05-16T09:37:11.943Z,1008.75
2023-05-16T09:38:13.038Z,1008.79
2023-05-16T09:39:12.280Z,1008.83
2023-05-16T09:40:12.492Z,1008.90
2023-05-16T09:41:12.708Z,1008.92
2023-05-16T09:42:12.876Z,1008.94
2023-05-16T09:43:14.000Z,1008.95
2023-05-16T09:44:13.259Z,1009.02
2023-05-16T09:45:14.043Z,1009.01
2023-05-16T09:46:16.075Z,1009.15
2023-05-16T09:47:13.725Z,1009.16
2023-05-16T09:48:13.921Z,1009.15
2023-05-16T09:49:14.096Z,1009.20
2023-05-16T09:50:17.169Z,1009.22
2023-05-16T09:51:15.488Z,1009.30
2023-05-16T09:52:14.635Z,1009.27
2023-05-16T09:53:14.823Z,1009.29
2023-05-16T09:54:15.014Z,1009.32
2023-05-16T09:55:16.100Z,1009.37
2023-05-16T09:56:16.411Z,1009.30
2023-05-16T09:57:15.555Z,1009.19
2023-05-16T09:58:16.556Z,1009.29
2023-05-16T09:59:15.965Z,1009.23
2023-05-16T10:00:16.093Z,1009.14
2023-05-16T10:01:17.295Z,1009.23
2023-05-16T10:02:17.184Z,1009.23
2023-05-16T10:03:16.706Z,1009.09
2023-05-16T10:04:16.856Z,1009.01
2023-05-16T10:05:17.503Z,1008.93
2023-05-16T10:06:18.029Z,1008.81
2023-05-16T10:07:18.043Z,1008.66
2023-05-16T10:08:17.448Z,1008.58
2023-05-16T10:09:17.638Z,1008.48
2023-05-16T10:10:17.806Z,1008.46
2023-05-16T10:11:17.939Z,1008.22
2023-05-16T10:12:18.114Z,1008.05
2023-05-16T10:13:18.264Z,1008.03
2023-05-16T10:14:19.528Z,1007.80
2023-05-16T10:15:19.550Z,1007.57
2023-05-16T10:16:19.574Z,1007.50
2023-05-16T10:17:18.983Z,1007.45
2023-05-16T10:18:19.166Z,1007.29
2023-05-16T10:19:19.501Z,1007.21
2023-05-16T10:20:19.584Z,1007.15
2023-05-16T10:21:19.734Z,1007.17
2023-05-16T10:22:21.511Z,1007.17
2023-05-16T10:23:21.010Z,1007.28
2023-05-16T10:24:20.282Z,1007.28
2023-05-16T10:25:21.079Z,1007.38
2023-05-16T10:26:20.607Z,1007.33
2023-05-16T10:27:20.763Z,1007.40
2023-05-16T10:28:21.069Z,1007.55
2023-05-16T10:29:21.110Z,1007.61
2023-05-16T10:30:21.303Z,1007.78
2023-05-16T10:31:21.548Z,1007.80
2023-05-16T10:32:21.696Z,1007.87
2023-05-16T10:33:22.539Z,1008.08
2023-05-16T10:34:21.947Z,1008.14
2023-05-16T10:35:22.140Z,1008.20
2023-05-16T10:36:22.317Z,1008.20
2023-05-16T10:37:24.016Z,1008.23
2023-05-16T10:38:22.642Z,1008.16
2023-05-16T10:39:23.515Z,1008.08
2023-05-16T10:40:23.024Z,1008.19
2023-05-16T10:41:23.290Z,1008.18
2023-05-16T10:42:23.559Z,1008.17
2023-05-16T10:43:24.551Z,1008.28
2023-05-16T10:44:23.723Z,1008.28
2023-05-16T10:45:24.560Z,1008.34
2023-05-16T10:46:25.169Z,1008.37
2023-05-16T10:47:24.564Z,1008.25
2023-05-16T10:48:25.564Z,1008.30
2023-05-16T10:49:25.113Z,1008.19
2023-05-16T10:50:24.913Z,1008.15
2023-05-16T10:51:25.111Z,1008.17
2023-05-16T10:52:26.061Z,1008.07
2023-05-16T10:53:27.062Z,1008.00
2023-05-16T10:54:26.515Z,1008.02
2023-05-16T10:55:26.728Z,1007.91
2023-05-16T10:56:26.709Z,1007.88
2023-05-16T10:57:26.249Z,1007.84
2023-05-16T10:58:26.456Z,1007.70
2023-05-16T10:59:26.669Z,1007.55
2023-05-16T11:00:27.072Z,1007.55
2023-05-16T11:01:27.051Z,1007.60
2023-05-16T11:02:27.208Z,1007.60
2023-05-16T11:03:27.472Z,1007.53
2023-05-16T11:04:28.028Z,1007.67
2023-05-16T11:05:28.711Z,1007.67
2023-05-16T11:06:28.522Z,1007.64
2023-05-16T11:07:29.536Z,1007.70
2023-05-16T11:08:28.174Z,1007.81
2023-05-16T11:09:31.028Z,1007.82
2023-05-16T11:10:28.552Z,1007.93
2023-05-16T11:11:28.745Z,1008.00
2023-05-16T11:12:28.980Z,1007.98
2023-05-16T11:13:29.179Z,1008.07
2023-05-16T11:14:29.400Z,1008.08
2023-05-16T11:15:30.318Z,1008.15
2023-05-16T11:16:31.623Z,1008.24
2023-05-16T11:17:30.658Z,1008.15
2023-05-16T11:18:30.160Z,1008.19
2023-05-16T11:19:30.279Z,1008.23
2023-05-16T11:20:30.572Z,1008.22
2023-05-16T11:21:30.599Z,1008.23
2023-05-16T11:22:30.791Z,1008.12
2023-05-16T11:23:30.999Z,1008.12
2023-05-16T11:24:31.198Z,1008.08
2023-05-16T11:25:31.582Z,1008.03
2023-05-16T11:26:32.531Z,1007.86
2023-05-16T11:27:32.703Z,1007.86
2023-05-16T11:28:31.852Z,1007.86
2023-05-16T11:29:32.920Z,1007.86
2023-05-16T11:30:32.237Z,1007.67
2023-05-16T11:31:32.458Z,1007.55
2023-05-16T11:32:33.706Z,1007.59
2023-05-16T11:33:33.569Z,1007.56
2023-05-16T11:34:34.528Z,1007.59
2023-05-16T11:35:33.586Z,1007.61
2023-05-16T11:36:34.026Z,1007.65
2023-05-16T11:37:33.692Z,1007.68
2023-05-16T11:38:34.573Z,1007.73
2023-05-16T11:39:34.152Z,1007.73
2023-05-16T11:40:34.199Z,1007.78
2023-05-16T11:41:34.584Z,1007.88
2023-05-16T11:42:34.567Z,1007.82
2023-05-16T11:43:34.629Z,1007.93
2023-05-16T11:44:34.755Z,1008.04
2023-05-16T11:45:34.873Z,1008.06
2023-05-16T11:46:35.103Z,1008.06
2023-05-16T11:47:35.301Z,1008.23
2023-05-16T11:48:36.667Z,1008.17
2023-05-16T11:49:36.739Z,1008.02
2023-05-16T11:50:35.859Z,1007.98
2023-05-16T11:51:36.019Z,1007.93
2023-05-16T11:52:37.535Z,1007.86
2023-05-16T11:53:37.081Z,1007.83
2023-05-16T11:54:36.616Z,1007.79
2023-05-16T11:55:42.011Z,1007.81
2023-05-16T11:56:40.536Z,1007.71
2023-05-16T11:57:38.084Z,1007.53
2023-05-16T11:58:38.107Z,1007.53
2023-05-16T11:59:37.693Z,1007.59
2023-05-16T12:00:38.529Z,1007.50
2023-05-16T12:01:38.038Z,1007.41
2023-05-16T12:02:39.119Z,1007.33
2023-05-16T12:03:40.242Z,1007.27
2023-05-16T12:04:38.721Z,1007.23
2023-05-16T12:05:39.642Z,1007.15
2023-05-16T12:06:39.542Z,1007.24
2023-05-16T12:07:41.059Z,1007.32